sensor_id;sensor_type;location;lat;lon;timestamp;temperature;humidity
25556;DHT22;13447;57.174;-2.112;2023-02-28T00:01:20;6.20;99.90
25556;DHT22;13447;57.174;-2.112;2023-02-28T00:03:48;6.20;99.90
25556;DHT22;13447;57.174;-2.112;2023-02-28T00:06:15;6.20;99.90
25556;DHT22;13447;57.174;-2.112;2023-02-28T00:08:42;6.20;99.90
25556;DHT22;13447;57.174;-2.112;2023-02-28T00:11:10;6.20;99.90
25556;DHT22;13447;57.174;-2.112;2023-02-28T00:13:38;6.20;99.90
25556;DHT22;13447;57.174;-2.112;2023-02-28T00:16:06;6.20;99.90
25556;DHT22;13447;57.174;-2.112;2023-02-28T00:18:33;6.20;99.90
25556;DHT22;13447;57.174;-2.112;2023-02-28T00:21:00;6.20;99.90
25556;DHT22;13447;57.174;-2.112;2023-02-28T00:23:27;6.10;99.90
25556;DHT22;13447;57.174;-2.112;2023-02-28T00:25:54;6.10;99.90
25556;DHT22;13447;57.174;-2.112;2023-02-28T00:28:21;6.10;99.90
25556;DHT22;13447;57.174;-2.112;2023-02-28T00:30:48;6.10;99.90
25556;DHT22;13447;57.174;-2.112;2023-02-28T00:33:15;6.10;99.90
25556;DHT22;13447;57.174;-2.112;2023-02-28T00:35:42;6.10;99.90
25556;DHT22;13447;57.174;-2.112;2023-02-28T00:38:09;6.10;99.90
25556;DHT22;13447;57.174;-2.112;2023-02-28T00:40:36;6.10;99.90
25556;DHT22;13447;57.174;-2.112;2023-02-28T00:43:02;6.10;99.90
25556;DHT22;13447;57.174;-2.112;2023-02-28T00:45:30;6.10;99.90
25556;DHT22;13447;57.174;-2.112;2023-02-28T00:47:57;6.00;99.90
25556;DHT22;13447;57.174;-2.112;2023-02-28T00:50:24;6.00;99.90
25556;DHT22;13447;57.174;-2.112;2023-02-28T00:52:51;6.00;99.90
25556;DHT22;13447;57.174;-2.112;2023-02-28T00:55:17;6.00;99.90
25556;DHT22;13447;57.174;-2.112;2023-02-28T00:57:45;6.00;99.90
25556;DHT22;13447;57.174;-2.112;2023-02-28T01:00:12;6.00;99.90
25556;DHT22;13447;57.174;-2.112;2023-02-28T01:02:39;6.00;99.90
25556;DHT22;13447;57.174;-2.112;2023-02-28T01:05:06;6.00;99.90
25556;DHT22;13447;57.174;-2.112;2023-02-28T01:07:32;5.90;99.90
25556;DHT22;13447;57.174;-2.112;2023-02-28T01:09:59;5.90;99.90
25556;DHT22;13447;57.174;-2.112;2023-02-28T01:12:26;5.90;99.90
25556;DHT22;13447;57.174;-2.112;2023-02-28T01:14:56;5.90;99.90
25556;DHT22;13447;57.174;-2.112;2023-02-28T01:17:23;5.80;99.90
25556;DHT22;13447;57.174;-2.112;2023-02-28T01:19:49;5.80;99.90
25556;DHT22;13447;57.174;-2.112;2023-02-28T01:22:19;5.80;99.90
25556;DHT22;13447;57.174;-2.112;2023-02-28T01:24:46;5.80;99.90
25556;DHT22;13447;57.174;-2.112;2023-02-28T01:27:13;5.80;99.90
25556;DHT22;13447;57.174;-2.112;2023-02-28T01:29:40;5.70;99.90
25556;DHT22;13447;57.174;-2.112;2023-02-28T01:32:07;5.70;99.90
25556;DHT22;13447;57.174;-2.112;2023-02-28T01:34:34;5.70;99.90
25556;DHT22;13447;57.174;-2.112;2023-02-28T01:37:01;5.70;99.90
25556;DHT22;13447;57.174;-2.112;2023-02-28T01:39:28;5.70;99.90
25556;DHT22;13447;57.174;-2.112;2023-02-28T01:41:54;5.70;99.90
25556;DHT22;13447;57.174;-2.112;2023-02-28T01:47:07;5.70;99.90
25556;DHT22;13447;57.174;-2.112;2023-02-28T01:49:34;5.70;99.90
25556;DHT22;13447;57.174;-2.112;2023-02-28T01:52:01;5.60;99.90
25556;DHT22;13447;57.174;-2.112;2023-02-28T01:54:31;5.60;99.90
25556;DHT22;13447;57.174;-2.112;2023-02-28T01:57:01;5.60;99.90
25556;DHT22;13447;57.174;-2.112;2023-02-28T01:59:33;5.60;99.90
25556;DHT22;13447;57.174;-2.112;2023-02-28T02:02:01;5.60;99.90
25556;DHT22;13447;57.174;-2.112;2023-02-28T02:04:31;5.60;99.90
25556;DHT22;13447;57.174;-2.112;2023-02-28T02:06:59;5.60;99.90
25556;DHT22;13447;57.174;-2.112;2023-02-28T02:09:26;5.50;99.90
25556;DHT22;13447;57.174;-2.112;2023-02-28T02:11:53;5.50;99.90
25556;DHT22;13447;57.174;-2.112;2023-02-28T02:14:29;5.50;99.90
25556;DHT22;13447;57.174;-2.112;2023-02-28T02:25:10;5.50;99.90
25556;DHT22;13447;57.174;-2.112;2023-02-28T02:38:16;5.50;99.90
25556;DHT22;13447;57.174;-2.112;2023-02-28T02:43:38;5.40;99.90
25556;DHT22;13447;57.174;-2.112;2023-02-28T02:46:28;5.40;99.90
25556;DHT22;13447;57.174;-2.112;2023-02-28T02:48:54;5.40;99.90
25556;DHT22;13447;57.174;-2.112;2023-02-28T02:51:22;5.40;99.90
25556;DHT22;13447;57.174;-2.112;2023-02-28T02:53:50;5.40;99.90
25556;DHT22;13447;57.174;-2.112;2023-02-28T02:56:19;5.40;99.90
25556;DHT22;13447;57.174;-2.112;2023-02-28T02:58:47;5.40;99.90
25556;DHT22;13447;57.174;-2.112;2023-02-28T03:01:17;5.40;99.90
25556;DHT22;13447;57.174;-2.112;2023-02-28T03:03:55;5.30;99.90
25556;DHT22;13447;57.174;-2.112;2023-02-28T03:06:22;5.30;99.90
25556;DHT22;13447;57.174;-2.112;2023-02-28T03:08:49;5.30;99.90
25556;DHT22;13447;57.174;-2.112;2023-02-28T03:11:16;5.30;99.90
25556;DHT22;13447;57.174;-2.112;2023-02-28T03:21:36;5.30;99.90
25556;DHT22;13447;57.174;-2.112;2023-02-28T03:26:35;5.30;99.90
25556;DHT22;13447;57.174;-2.112;2023-02-28T03:29:18;5.20;99.90
25556;DHT22;13447;57.174;-2.112;2023-02-28T03:31:48;5.20;99.90
25556;DHT22;13447;57.174;-2.112;2023-02-28T03:34:19;5.20;99.90
25556;DHT22;13447;57.174;-2.112;2023-02-28T03:36:48;5.20;99.90
25556;DHT22;13447;57.174;-2.112;2023-02-28T03:39:17;5.20;99.90
25556;DHT22;13447;57.174;-2.112;2023-02-28T03:41:47;5.20;99.90
25556;DHT22;13447;57.174;-2.112;2023-02-28T03:49:46;5.10;99.90
25556;DHT22;13447;57.174;-2.112;2023-02-28T03:52:14;5.10;99.90
25556;DHT22;13447;57.174;-2.112;2023-02-28T03:54:42;5.10;99.90
25556;DHT22;13447;57.174;-2.112;2023-02-28T03:57:12;5.10;99.90
25556;DHT22;13447;57.174;-2.112;2023-02-28T03:59:42;5.00;99.90
25556;DHT22;13447;57.174;-2.112;2023-02-28T04:02:09;5.00;99.90
25556;DHT22;13447;57.174;-2.112;2023-02-28T04:04:36;4.90;99.90
25556;DHT22;13447;57.174;-2.112;2023-02-28T04:07:07;4.90;99.90
25556;DHT22;13447;57.174;-2.112;2023-02-28T04:09:34;4.90;99.90
25556;DHT22;13447;57.174;-2.112;2023-02-28T04:12:01;4.90;1.00
25556;DHT22;13447;57.174;-2.112;2023-02-28T04:14:28;4.90;1.00
25556;DHT22;13447;57.174;-2.112;2023-02-28T04:16:54;4.90;1.00
25556;DHT22;13447;57.174;-2.112;2023-02-28T04:19:21;4.90;1.00
25556;DHT22;13447;57.174;-2.112;2023-02-28T04:21:49;4.90;1.00
25556;DHT22;13447;57.174;-2.112;2023-02-28T04:24:23;5.00;1.00
25556;DHT22;13447;57.174;-2.112;2023-02-28T04:26:51;5.00;1.00
25556;DHT22;13447;57.174;-2.112;2023-02-28T04:29:26;4.90;1.00
25556;DHT22;13447;57.174;-2.112;2023-02-28T04:31:54;4.90;1.00
25556;DHT22;13447;57.174;-2.112;2023-02-28T04:34:21;4.90;1.00
25556;DHT22;13447;57.174;-2.112;2023-02-28T04:36:48;4.90;1.00
25556;DHT22;13447;57.174;-2.112;2023-02-28T04:39:37;4.90;1.00
25556;DHT22;13447;57.174;-2.112;2023-02-28T04:42:04;5.00;1.00
25556;DHT22;13447;57.174;-2.112;2023-02-28T04:44:31;5.00;1.00
25556;DHT22;13447;57.174;-2.112;2023-02-28T04:46:58;4.90;1.00
25556;DHT22;13447;57.174;-2.112;2023-02-28T04:49:25;5.00;1.00
25556;DHT22;13447;57.174;-2.112;2023-02-28T04:51:52;4.90;1.00
25556;DHT22;13447;57.174;-2.112;2023-02-28T04:54:19;5.00;1.00
25556;DHT22;13447;57.174;-2.112;2023-02-28T04:56:46;4.90;1.00
25556;DHT22;13447;57.174;-2.112;2023-02-28T04:59:14;5.00;1.00
25556;DHT22;13447;57.174;-2.112;2023-02-28T05:01:44;5.00;1.00
25556;DHT22;13447;57.174;-2.112;2023-02-28T05:04:11;4.90;1.00
25556;DHT22;13447;57.174;-2.112;2023-02-28T05:06:38;5.00;1.00
25556;DHT22;13447;57.174;-2.112;2023-02-28T05:09:05;5.00;1.00
25556;DHT22;13447;57.174;-2.112;2023-02-28T05:11:32;4.90;1.00
25556;DHT22;13447;57.174;-2.112;2023-02-28T05:14:03;4.90;1.00
25556;DHT22;13447;57.174;-2.112;2023-02-28T05:16:30;4.90;1.00
25556;DHT22;13447;57.174;-2.112;2023-02-28T05:18:58;4.90;1.00
25556;DHT22;13447;57.174;-2.112;2023-02-28T05:21:26;4.90;1.00
25556;DHT22;13447;57.174;-2.112;2023-02-28T05:23:55;4.90;1.00
25556;DHT22;13447;57.174;-2.112;2023-02-28T05:26:22;4.90;1.00
25556;DHT22;13447;57.174;-2.112;2023-02-28T05:28:50;4.90;1.00
25556;DHT22;13447;57.174;-2.112;2023-02-28T05:31:17;4.80;1.00
25556;DHT22;13447;57.174;-2.112;2023-02-28T05:33:44;4.90;1.00
25556;DHT22;13447;57.174;-2.112;2023-02-28T05:36:11;4.90;1.00
25556;DHT22;13447;57.174;-2.112;2023-02-28T05:38:38;4.90;1.00
25556;DHT22;13447;57.174;-2.112;2023-02-28T05:41:08;4.90;1.00
25556;DHT22;13447;57.174;-2.112;2023-02-28T05:43:36;4.90;1.00
25556;DHT22;13447;57.174;-2.112;2023-02-28T05:46:07;4.90;1.00
25556;DHT22;13447;57.174;-2.112;2023-02-28T05:48:34;4.90;1.00
25556;DHT22;13447;57.174;-2.112;2023-02-28T05:51:02;4.90;1.00
25556;DHT22;13447;57.174;-2.112;2023-02-28T05:53:29;4.90;1.00
25556;DHT22;13447;57.174;-2.112;2023-02-28T05:55:56;4.90;1.00
25556;DHT22;13447;57.174;-2.112;2023-02-28T05:58:23;4.80;1.00
25556;DHT22;13447;57.174;-2.112;2023-02-28T06:00:52;4.80;1.00
25556;DHT22;13447;57.174;-2.112;2023-02-28T06:03:19;4.80;1.00
25556;DHT22;13447;57.174;-2.112;2023-02-28T06:05:45;4.80;1.00
25556;DHT22;13447;57.174;-2.112;2023-02-28T06:08:12;4.80;1.00
25556;DHT22;13447;57.174;-2.112;2023-02-28T06:10:39;4.80;1.00
25556;DHT22;13447;57.174;-2.112;2023-02-28T06:13:06;4.80;1.00
25556;DHT22;13447;57.174;-2.112;2023-02-28T06:15:33;4.70;1.00
25556;DHT22;13447;57.174;-2.112;2023-02-28T06:18:00;4.80;1.00
25556;DHT22;13447;57.174;-2.112;2023-02-28T06:20:27;4.80;1.00
25556;DHT22;13447;57.174;-2.112;2023-02-28T06:22:56;4.80;1.00
25556;DHT22;13447;57.174;-2.112;2023-02-28T06:25:25;4.80;1.00
25556;DHT22;13447;57.174;-2.112;2023-02-28T06:27:53;4.90;1.00
25556;DHT22;13447;57.174;-2.112;2023-02-28T06:30:20;4.80;1.00
25556;DHT22;13447;57.174;-2.112;2023-02-28T06:32:52;4.80;1.00
25556;DHT22;13447;57.174;-2.112;2023-02-28T06:35:18;4.80;1.00
25556;DHT22;13447;57.174;-2.112;2023-02-28T06:37:45;4.80;1.00
25556;DHT22;13447;57.174;-2.112;2023-02-28T06:40:14;4.70;1.00
25556;DHT22;13447;57.174;-2.112;2023-02-28T06:42:46;4.70;1.00
25556;DHT22;13447;57.174;-2.112;2023-02-28T06:45:13;4.70;1.00
25556;DHT22;13447;57.174;-2.112;2023-02-28T06:47:40;4.70;1.00
25556;DHT22;13447;57.174;-2.112;2023-02-28T06:50:09;4.70;1.00
25556;DHT22;13447;57.174;-2.112;2023-02-28T06:52:36;4.60;1.00
25556;DHT22;13447;57.174;-2.112;2023-02-28T06:55:04;4.60;1.00
25556;DHT22;13447;57.174;-2.112;2023-02-28T06:57:32;4.60;1.00
25556;DHT22;13447;57.174;-2.112;2023-02-28T06:59:59;4.70;1.00
25556;DHT22;13447;57.174;-2.112;2023-02-28T07:02:27;4.70;1.00
25556;DHT22;13447;57.174;-2.112;2023-02-28T07:04:54;4.60;1.00
25556;DHT22;13447;57.174;-2.112;2023-02-28T07:07:21;4.60;1.00
25556;DHT22;13447;57.174;-2.112;2023-02-28T07:09:48;4.50;1.00
25556;DHT22;13447;57.174;-2.112;2023-02-28T07:12:15;4.50;1.00
25556;DHT22;13447;57.174;-2.112;2023-02-28T07:14:42;4.50;1.00
25556;DHT22;13447;57.174;-2.112;2023-02-28T07:17:09;4.50;1.00
25556;DHT22;13447;57.174;-2.112;2023-02-28T07:19:38;4.50;1.00
25556;DHT22;13447;57.174;-2.112;2023-02-28T07:22:06;4.50;1.00
25556;DHT22;13447;57.174;-2.112;2023-02-28T07:24:33;4.50;1.00
25556;DHT22;13447;57.174;-2.112;2023-02-28T07:27:00;4.50;1.00
25556;DHT22;13447;57.174;-2.112;2023-02-28T07:29:28;4.50;1.00
25556;DHT22;13447;57.174;-2.112;2023-02-28T07:31:55;4.50;1.00
25556;DHT22;13447;57.174;-2.112;2023-02-28T07:34:22;4.60;1.00
25556;DHT22;13447;57.174;-2.112;2023-02-28T07:36:52;4.60;1.00
25556;DHT22;13447;57.174;-2.112;2023-02-28T07:39:20;4.50;1.00
25556;DHT22;13447;57.174;-2.112;2023-02-28T07:41:47;4.50;1.00
25556;DHT22;13447;57.174;-2.112;2023-02-28T07:44:14;4.50;1.00
25556;DHT22;13447;57.174;-2.112;2023-02-28T07:46:41;4.50;1.00
25556;DHT22;13447;57.174;-2.112;2023-02-28T07:49:08;4.40;1.00
25556;DHT22;13447;57.174;-2.112;2023-02-28T07:51:35;4.40;1.00
25556;DHT22;13447;57.174;-2.112;2023-02-28T07:54:02;4.50;1.00
25556;DHT22;13447;57.174;-2.112;2023-02-28T07:56:29;4.50;1.00
25556;DHT22;13447;57.174;-2.112;2023-02-28T07:58:57;4.50;1.00
25556;DHT22;13447;57.174;-2.112;2023-02-28T08:01:24;4.50;1.00
25556;DHT22;13447;57.174;-2.112;2023-02-28T08:03:50;4.50;1.00
25556;DHT22;13447;57.174;-2.112;2023-02-28T08:06:19;4.60;1.00
25556;DHT22;13447;57.174;-2.112;2023-02-28T08:08:46;4.60;1.00
25556;DHT22;13447;57.174;-2.112;2023-02-28T08:11:13;4.70;1.00
25556;DHT22;13447;57.174;-2.112;2023-02-28T08:13:40;4.90;1.00
25556;DHT22;13447;57.174;-2.112;2023-02-28T08:16:09;4.90;1.00
25556;DHT22;13447;57.174;-2.112;2023-02-28T08:18:36;5.00;1.00
25556;DHT22;13447;57.174;-2.112;2023-02-28T08:21:06;5.10;1.00
25556;DHT22;13447;57.174;-2.112;2023-02-28T08:23:33;5.10;1.00
25556;DHT22;13447;57.174;-2.112;2023-02-28T08:26:00;5.20;1.00
25556;DHT22;13447;57.174;-2.112;2023-02-28T08:28:27;5.20;1.00
25556;DHT22;13447;57.174;-2.112;2023-02-28T08:30:54;5.20;1.00
25556;DHT22;13447;57.174;-2.112;2023-02-28T08:33:22;5.30;1.00
25556;DHT22;13447;57.174;-2.112;2023-02-28T08:35:51;5.30;1.00
25556;DHT22;13447;57.174;-2.112;2023-02-28T08:38:19;5.40;1.00
25556;DHT22;13447;57.174;-2.112;2023-02-28T08:40:49;5.40;1.00
25556;DHT22;13447;57.174;-2.112;2023-02-28T08:43:16;5.40;1.00
25556;DHT22;13447;57.174;-2.112;2023-02-28T08:45:45;5.40;1.00
25556;DHT22;13447;57.174;-2.112;2023-02-28T09:12:45;6.00;1.00
25556;DHT22;13447;57.174;-2.112;2023-02-28T09:15:13;6.10;1.00
25556;DHT22;13447;57.174;-2.112;2023-02-28T09:17:40;6.00;1.00
25556;DHT22;13447;57.174;-2.112;2023-02-28T09:20:09;6.00;1.00
25556;DHT22;13447;57.174;-2.112;2023-02-28T09:25:03;6.20;1.00
25556;DHT22;13447;57.174;-2.112;2023-02-28T09:27:30;6.20;1.00
25556;DHT22;13447;57.174;-2.112;2023-02-28T09:29:57;6.20;1.00
25556;DHT22;13447;57.174;-2.112;2023-02-28T09:34:55;6.40;1.00
25556;DHT22;13447;57.174;-2.112;2023-02-28T09:37:22;6.40;1.00
25556;DHT22;13447;57.174;-2.112;2023-02-28T09:39:50;6.50;1.00
25556;DHT22;13447;57.174;-2.112;2023-02-28T09:42:32;6.60;1.00
25556;DHT22;13447;57.174;-2.112;2023-02-28T09:45:00;6.80;1.00
25556;DHT22;13447;57.174;-2.112;2023-02-28T09:52:59;7.30;1.00
25556;DHT22;13447;57.174;-2.112;2023-02-28T09:55:45;7.30;1.00
25556;DHT22;13447;57.174;-2.112;2023-02-28T10:01:17;7.30;1.00
25556;DHT22;13447;57.174;-2.112;2023-02-28T10:03:55;7.20;1.00
25556;DHT22;13447;57.174;-2.112;2023-02-28T10:06:26;7.40;1.00
25556;DHT22;13447;57.174;-2.112;2023-02-28T10:09:00;7.80;1.00
25556;DHT22;13447;57.174;-2.112;2023-02-28T10:11:28;8.60;1.00
25556;DHT22;13447;57.174;-2.112;2023-02-28T10:14:01;9.00;1.00
25556;DHT22;13447;57.174;-2.112;2023-02-28T10:22:12;8.10;1.00
25556;DHT22;13447;57.174;-2.112;2023-02-28T10:24:44;8.00;1.00
25556;DHT22;13447;57.174;-2.112;2023-02-28T10:30:28;7.60;99.90
25556;DHT22;13447;57.174;-2.112;2023-02-28T10:32:57;7.50;99.90
25556;DHT22;13447;57.174;-2.112;2023-02-28T10:38:23;7.90;99.90
25556;DHT22;13447;57.174;-2.112;2023-02-28T10:40:50;7.90;99.90
25556;DHT22;13447;57.174;-2.112;2023-02-28T10:43:19;7.80;99.90
25556;DHT22;13447;57.174;-2.112;2023-02-28T10:45:55;7.80;99.90
25556;DHT22;13447;57.174;-2.112;2023-02-28T10:48:33;7.80;99.90
25556;DHT22;13447;57.174;-2.112;2023-02-28T10:51:02;7.80;99.90
25556;DHT22;13447;57.174;-2.112;2023-02-28T11:17:41;7.70;99.90
25556;DHT22;13447;57.174;-2.112;2023-02-28T11:25:34;7.70;99.90
25556;DHT22;13447;57.174;-2.112;2023-02-28T11:28:03;7.80;99.90
25556;DHT22;13447;57.174;-2.112;2023-02-28T11:33:01;7.90;99.90
25556;DHT22;13447;57.174;-2.112;2023-02-28T11:35:43;7.90;99.90
25556;DHT22;13447;57.174;-2.112;2023-02-28T11:38:11;7.90;99.90
25556;DHT22;13447;57.174;-2.112;2023-02-28T11:40:43;8.00;99.90
25556;DHT22;13447;57.174;-2.112;2023-02-28T11:51:14;8.00;99.90
25556;DHT22;13447;57.174;-2.112;2023-02-28T11:53:50;8.00;99.90
25556;DHT22;13447;57.174;-2.112;2023-02-28T12:10:38;8.00;99.90
25556;DHT22;13447;57.174;-2.112;2023-02-28T12:13:32;7.90;99.90
25556;DHT22;13447;57.174;-2.112;2023-02-28T12:16:37;7.90;99.90
25556;DHT22;13447;57.174;-2.112;2023-02-28T12:19:47;7.90;99.90
25556;DHT22;13447;57.174;-2.112;2023-02-28T12:22:31;7.80;99.90
25556;DHT22;13447;57.174;-2.112;2023-02-28T12:28:00;7.70;99.90
25556;DHT22;13447;57.174;-2.112;2023-02-28T12:34:18;7.60;99.90
25556;DHT22;13447;57.174;-2.112;2023-02-28T12:37:21;7.60;99.90
25556;DHT22;13447;57.174;-2.112;2023-02-28T12:40:00;7.60;99.90
25556;DHT22;13447;57.174;-2.112;2023-02-28T12:42:57;7.70;99.90
25556;DHT22;13447;57.174;-2.112;2023-02-28T12:48:43;7.60;99.90
25556;DHT22;13447;57.174;-2.112;2023-02-28T12:51:24;7.70;99.90
25556;DHT22;13447;57.174;-2.112;2023-02-28T13:00:15;7.70;99.90
25556;DHT22;13447;57.174;-2.112;2023-02-28T13:17:14;7.80;99.90
25556;DHT22;13447;57.174;-2.112;2023-02-28T13:19:58;7.80;99.90
25556;DHT22;13447;57.174;-2.112;2023-02-28T13:31:10;7.80;99.90
25556;DHT22;13447;57.174;-2.112;2023-02-28T13:41:55;7.70;99.90
25556;DHT22;13447;57.174;-2.112;2023-02-28T13:51:25;7.70;99.90
25556;DHT22;13447;57.174;-2.112;2023-02-28T13:53:54;7.70;99.90
25556;DHT22;13447;57.174;-2.112;2023-02-28T14:05:27;7.50;99.90
25556;DHT22;13447;57.174;-2.112;2023-02-28T14:26:29;7.50;99.90
25556;DHT22;13447;57.174;-2.112;2023-02-28T14:29:36;7.50;99.90
25556;DHT22;13447;57.174;-2.112;2023-02-28T14:37:10;7.60;99.90
25556;DHT22;13447;57.174;-2.112;2023-02-28T14:39:41;7.60;99.90
25556;DHT22;13447;57.174;-2.112;2023-02-28T14:42:27;7.70;99.90
25556;DHT22;13447;57.174;-2.112;2023-02-28T14:44:55;7.60;99.90
25556;DHT22;13447;57.174;-2.112;2023-02-28T14:50:47;7.70;99.90
25556;DHT22;13447;57.174;-2.112;2023-02-28T14:53:16;7.70;99.90
25556;DHT22;13447;57.174;-2.112;2023-02-28T14:58:27;7.70;99.90
25556;DHT22;13447;57.174;-2.112;2023-02-28T15:00:56;7.80;99.90
25556;DHT22;13447;57.174;-2.112;2023-02-28T15:06:00;7.80;99.90
25556;DHT22;13447;57.174;-2.112;2023-02-28T15:08:29;7.80;99.90
25556;DHT22;13447;57.174;-2.112;2023-02-28T15:16:28;7.80;99.90
25556;DHT22;13447;57.174;-2.112;2023-02-28T15:21:35;7.80;99.90
25556;DHT22;13447;57.174;-2.112;2023-02-28T15:24:04;7.90;99.90
25556;DHT22;13447;57.174;-2.112;2023-02-28T15:26:34;7.90;99.90
25556;DHT22;13447;57.174;-2.112;2023-02-28T15:29:06;8.00;99.90
25556;DHT22;13447;57.174;-2.112;2023-02-28T15:31:45;7.90;99.90
25556;DHT22;13447;57.174;-2.112;2023-02-28T15:36:53;7.80;99.90
25556;DHT22;13447;57.174;-2.112;2023-02-28T15:39:22;7.60;99.90
25556;DHT22;13447;57.174;-2.112;2023-02-28T15:44:39;7.30;99.90
25556;DHT22;13447;57.174;-2.112;2023-02-28T15:47:12;7.20;99.90
25556;DHT22;13447;57.174;-2.112;2023-02-28T15:50:00;7.20;99.90
25556;DHT22;13447;57.174;-2.112;2023-02-28T15:54:56;7.10;99.90
25556;DHT22;13447;57.174;-2.112;2023-02-28T15:57:26;7.10;99.90
25556;DHT22;13447;57.174;-2.112;2023-02-28T15:59:59;7.00;99.90
25556;DHT22;13447;57.174;-2.112;2023-02-28T16:02:34;7.10;99.90
25556;DHT22;13447;57.174;-2.112;2023-02-28T16:05:12;7.10;99.90
25556;DHT22;13447;57.174;-2.112;2023-02-28T16:07:43;7.10;99.90
25556;DHT22;13447;57.174;-2.112;2023-02-28T16:10:11;7.10;99.90
25556;DHT22;13447;57.174;-2.112;2023-02-28T16:12:38;7.20;99.90
25556;DHT22;13447;57.174;-2.112;2023-02-28T16:15:07;7.20;99.90
25556;DHT22;13447;57.174;-2.112;2023-02-28T16:17:35;7.20;1.00
25556;DHT22;13447;57.174;-2.112;2023-02-28T16:20:20;7.20;1.00
25556;DHT22;13447;57.174;-2.112;2023-02-28T16:22:48;7.20;1.00
25556;DHT22;13447;57.174;-2.112;2023-02-28T16:25:19;7.20;1.00
25556;DHT22;13447;57.174;-2.112;2023-02-28T16:27:48;7.10;1.00
25556;DHT22;13447;57.174;-2.112;2023-02-28T16:30:21;7.10;1.00
25556;DHT22;13447;57.174;-2.112;2023-02-28T16:32:49;7.00;1.00
25556;DHT22;13447;57.174;-2.112;2023-02-28T16:35:17;7.10;1.00
25556;DHT22;13447;57.174;-2.112;2023-02-28T16:37:44;7.10;1.00
25556;DHT22;13447;57.174;-2.112;2023-02-28T16:40:15;7.10;1.00
25556;DHT22;13447;57.174;-2.112;2023-02-28T16:42:43;7.00;1.00
25556;DHT22;13447;57.174;-2.112;2023-02-28T16:45:20;6.90;1.00
25556;DHT22;13447;57.174;-2.112;2023-02-28T16:47:47;6.90;1.00
25556;DHT22;13447;57.174;-2.112;2023-02-28T16:50:18;6.80;1.00
25556;DHT22;13447;57.174;-2.112;2023-02-28T16:52:45;6.90;1.00
25556;DHT22;13447;57.174;-2.112;2023-02-28T16:55:12;6.90;1.00
25556;DHT22;13447;57.174;-2.112;2023-02-28T16:57:39;6.90;1.00
25556;DHT22;13447;57.174;-2.112;2023-02-28T17:00:07;6.90;1.00
25556;DHT22;13447;57.174;-2.112;2023-02-28T17:02:34;6.90;1.00
25556;DHT22;13447;57.174;-2.112;2023-02-28T17:05:02;6.90;99.90
25556;DHT22;13447;57.174;-2.112;2023-02-28T17:07:29;6.90;99.90
25556;DHT22;13447;57.174;-2.112;2023-02-28T17:09:55;6.80;99.90
25556;DHT22;13447;57.174;-2.112;2023-02-28T17:12:22;6.80;99.90
25556;DHT22;13447;57.174;-2.112;2023-02-28T17:14:49;6.70;99.90
25556;DHT22;13447;57.174;-2.112;2023-02-28T17:17:20;6.70;99.90
25556;DHT22;13447;57.174;-2.112;2023-02-28T17:19:47;6.60;99.90
25556;DHT22;13447;57.174;-2.112;2023-02-28T17:22:14;6.60;99.90
25556;DHT22;13447;57.174;-2.112;2023-02-28T17:24:41;6.60;99.90
25556;DHT22;13447;57.174;-2.112;2023-02-28T17:27:10;6.50;99.90
25556;DHT22;13447;57.174;-2.112;2023-02-28T17:29:37;6.50;99.90
25556;DHT22;13447;57.174;-2.112;2023-02-28T17:32:04;6.50;99.90
25556;DHT22;13447;57.174;-2.112;2023-02-28T17:34:43;6.50;99.90
25556;DHT22;13447;57.174;-2.112;2023-02-28T17:37:10;6.40;99.90
25556;DHT22;13447;57.174;-2.112;2023-02-28T17:39:37;6.40;99.90
25556;DHT22;13447;57.174;-2.112;2023-02-28T17:42:04;6.40;99.90
25556;DHT22;13447;57.174;-2.112;2023-02-28T17:44:30;6.40;99.90
25556;DHT22;13447;57.174;-2.112;2023-02-28T17:46:58;6.40;99.90
25556;DHT22;13447;57.174;-2.112;2023-02-28T17:49:25;6.40;99.90
25556;DHT22;13447;57.174;-2.112;2023-02-28T17:51:52;6.30;99.90
25556;DHT22;13447;57.174;-2.112;2023-02-28T17:54:18;6.30;99.90
25556;DHT22;13447;57.174;-2.112;2023-02-28T17:56:46;6.40;99.90
25556;DHT22;13447;57.174;-2.112;2023-02-28T17:59:13;6.40;99.90
25556;DHT22;13447;57.174;-2.112;2023-02-28T18:01:40;6.40;1.00
25556;DHT22;13447;57.174;-2.112;2023-02-28T18:04:07;6.40;1.00
25556;DHT22;13447;57.174;-2.112;2023-02-28T18:06:37;6.50;1.00
25556;DHT22;13447;57.174;-2.112;2023-02-28T18:09:15;6.50;1.00
25556;DHT22;13447;57.174;-2.112;2023-02-28T18:11:42;6.50;1.00
25556;DHT22;13447;57.174;-2.112;2023-02-28T18:14:16;6.50;1.00
25556;DHT22;13447;57.174;-2.112;2023-02-28T18:17:09;6.50;1.00
25556;DHT22;13447;57.174;-2.112;2023-02-28T18:19:36;6.50;1.00
25556;DHT22;13447;57.174;-2.112;2023-02-28T18:22:04;6.50;1.00
25556;DHT22;13447;57.174;-2.112;2023-02-28T18:24:33;6.50;1.00
25556;DHT22;13447;57.174;-2.112;2023-02-28T18:27:01;6.50;1.00
25556;DHT22;13447;57.174;-2.112;2023-02-28T18:29:28;6.50;1.00
25556;DHT22;13447;57.174;-2.112;2023-02-28T18:31:55;6.50;1.00
25556;DHT22;13447;57.174;-2.112;2023-02-28T18:34:23;6.50;1.00
25556;DHT22;13447;57.174;-2.112;2023-02-28T18:36:50;6.40;1.00
25556;DHT22;13447;57.174;-2.112;2023-02-28T18:39:17;6.50;1.00
25556;DHT22;13447;57.174;-2.112;2023-02-28T18:44:26;6.50;1.00
25556;DHT22;13447;57.174;-2.112;2023-02-28T18:46:54;6.50;1.00
25556;DHT22;13447;57.174;-2.112;2023-02-28T18:49:21;6.50;1.00
25556;DHT22;13447;57.174;-2.112;2023-02-28T18:51:48;6.50;1.00
25556;DHT22;13447;57.174;-2.112;2023-02-28T18:54:16;6.50;1.00
25556;DHT22;13447;57.174;-2.112;2023-02-28T18:56:43;6.50;99.90
25556;DHT22;13447;57.174;-2.112;2023-02-28T18:59:11;6.60;99.90
25556;DHT22;13447;57.174;-2.112;2023-02-28T19:01:38;6.60;99.90
25556;DHT22;13447;57.174;-2.112;2023-02-28T19:04:06;6.50;99.90
25556;DHT22;13447;57.174;-2.112;2023-02-28T19:06:37;6.50;99.90
25556;DHT22;13447;57.174;-2.112;2023-02-28T19:09:05;6.50;99.90
25556;DHT22;13447;57.174;-2.112;2023-02-28T19:11:35;6.50;99.90
25556;DHT22;13447;57.174;-2.112;2023-02-28T19:14:03;6.60;99.90
25556;DHT22;13447;57.174;-2.112;2023-02-28T19:16:34;6.60;99.90
25556;DHT22;13447;57.174;-2.112;2023-02-28T19:19:02;6.60;99.90
25556;DHT22;13447;57.174;-2.112;2023-02-28T19:21:29;6.60;99.90
25556;DHT22;13447;57.174;-2.112;2023-02-28T19:24:13;6.50;99.90
25556;DHT22;13447;57.174;-2.112;2023-02-28T19:27:03;6.50;99.90
25556;DHT22;13447;57.174;-2.112;2023-02-28T19:29:33;6.50;99.90
25556;DHT22;13447;57.174;-2.112;2023-02-28T19:32:00;6.50;99.90
25556;DHT22;13447;57.174;-2.112;2023-02-28T19:34:29;6.50;99.90
25556;DHT22;13447;57.174;-2.112;2023-02-28T19:39:58;6.60;99.90
25556;DHT22;13447;57.174;-2.112;2023-02-28T19:42:28;6.60;99.90
25556;DHT22;13447;57.174;-2.112;2023-02-28T19:44:58;6.50;99.90
25556;DHT22;13447;57.174;-2.112;2023-02-28T19:47:25;6.50;99.90
25556;DHT22;13447;57.174;-2.112;2023-02-28T19:49:52;6.50;99.90
25556;DHT22;13447;57.174;-2.112;2023-02-28T19:52:20;6.50;99.90
25556;DHT22;13447;57.174;-2.112;2023-02-28T19:54:47;6.50;99.90
25556;DHT22;13447;57.174;-2.112;2023-02-28T19:57:14;6.50;99.90
25556;DHT22;13447;57.174;-2.112;2023-02-28T19:59:41;6.50;99.90
25556;DHT22;13447;57.174;-2.112;2023-02-28T20:02:17;6.50;99.90
25556;DHT22;13447;57.174;-2.112;2023-02-28T20:04:48;6.50;99.90
25556;DHT22;13447;57.174;-2.112;2023-02-28T20:07:19;6.50;99.90
25556;DHT22;13447;57.174;-2.112;2023-02-28T20:09:47;6.50;99.90
25556;DHT22;13447;57.174;-2.112;2023-02-28T20:12:14;6.50;99.90
25556;DHT22;13447;57.174;-2.112;2023-02-28T20:14:50;6.50;99.90